Time;durP1;ratioP1;P1;durP2;ratioP2;P2;SDS_P1;SDS_P2;PMS_P1;PMS_P2;Temp;Humidity;BMP_temperature;BMP_pressure;BME280_temperature;BME280_humidity;BME280_pressure;Samples;Min_cycle;Max_cycle;Signal;HPM_P1;HPM_P2
2021/12/06 00:01:29;;;;;;;14.43;8.20;;;;;;;5.68;96.10;100072.16;5054742;28;20219;-83
2021/12/06 00:04:19;;;;;;;12.25;7.53;;;;;;;5.71;96.28;100066.47;5054559;28;20296;-82
2021/12/06 00:06:53;;;;;;;16.40;7.87;;;;;;;5.73;96.42;100045.56;5054846;28;20210;-83
2021/12/06 00:09:22;;;;;;;13.53;7.77;;;;;;;5.71;96.31;100052.13;5055060;28;20233;-83
2021/12/06 00:11:50;;;;;;;18.37;8.60;;;;;;;5.69;96.07;100045.06;5054693;28;20168;-81
2021/12/06 00:14:17;;;;;;;13.87;8.63;;;;;;;5.69;95.93;100040.00;5054545;28;20210;-83
2021/12/06 00:16:42;;;;;;;16.95;8.48;;;;;;;5.78;95.47;100048.53;5055982;28;20202;-83
2021/12/06 00:19:08;;;;;;;16.27;9.10;;;;;;;5.79;95.87;100048.72;5058222;28;20651;-82
2021/12/06 00:21:34;;;;;;;16.57;9.40;;;;;;;5.71;95.85;100034.31;5054234;28;20179;-83
2021/12/06 00:24:00;;;;;;;12.50;7.70;;;;;;;5.81;95.72;100061.56;5053987;28;20199;-84
2021/12/06 00:26:26;;;;;;;12.77;8.43;;;;;;;5.79;96.06;100058.88;5054087;28;20183;-83
2021/12/06 00:28:57;;;;;;;16.23;8.77;;;;;;;5.82;96.04;100050.63;5053820;28;20190;-81
2021/12/06 00:31:24;;;;;;;15.95;7.88;;;;;;;5.79;96.06;100043.63;5037150;28;20167;-82
2021/12/06 00:33:58;;;;;;;14.75;8.27;;;;;;;5.84;95.79;100055.88;5053440;28;20199;-82
2021/12/06 00:36:28;;;;;;;13.30;7.87;;;;;;;5.78;96.64;100058.72;5053907;28;20369;-82
2021/12/06 00:38:54;;;;;;;11.87;7.73;;;;;;;5.85;96.37;100075.47;5053750;28;20273;-82
2021/12/06 00:41:20;;;;;;;12.10;7.97;;;;;;;5.86;96.54;100077.28;5053536;28;20182;-83
2021/12/06 00:43:46;;;;;;;14.07;8.70;;;;;;;5.84;96.79;100061.84;5053693;28;20207;-83
2021/12/06 00:46:12;;;;;;;13.40;8.77;;;;;;;5.82;96.94;100057.38;5053511;28;20634;-82
2021/12/06 00:48:38;;;;;;;20.17;9.60;;;;;;;5.81;96.95;100063.19;5053419;28;20185;-84
2021/12/06 00:51:03;;;;;;;20.27;10.05;;;;;;;5.77;97.55;100052.72;5053450;28;20646;-83
2021/12/06 00:53:29;;;;;;;15.63;9.60;;;;;;;5.87;97.33;100061.28;5035196;28;20651;-82
2021/12/06 00:55:55;;;;;;;14.57;8.37;;;;;;;5.64;97.01;100011.59;5053236;28;20728;-83
2021/12/06 00:58:21;;;;;;;15.70;8.97;;;;;;;5.84;97.68;100040.63;5053334;28;20194;-83
2021/12/06 01:00:49;;;;;;;13.07;8.70;;;;;;;5.65;97.24;100012.50;5052919;28;20565;-84
2021/12/06 01:03:28;;;;;;;13.63;8.50;;;;;;;5.42;97.75;99965.38;5053424;28;20164;-82
2021/12/06 01:05:54;;;;;;;14.87;8.77;;;;;;;5.86;97.35;100026.44;5053452;28;20227;-82
2021/12/06 01:08:20;;;;;;;15.33;8.97;;;;;;;5.82;97.18;100006.50;5053010;28;20610;-83
2021/12/06 01:10:47;;;;;;;16.77;9.27;;;;;;;5.84;97.30;100000.84;5052752;28;20230;-83
2021/12/06 01:13:13;;;;;;;16.13;9.37;;;;;;;5.70;97.20;99974.06;5052900;28;20270;-83
2021/12/06 01:15:40;;;;;;;16.33;9.73;;;;;;;5.90;96.18;99993.81;5052864;28;20654;-83
2021/12/06 01:18:09;;;;;;;15.83;9.40;;;;;;;5.92;96.85;99993.94;5052541;28;20186;-83
2021/12/06 01:20:47;;;;;;;18.07;9.83;;;;;;;5.86;97.21;99979.03;5052647;28;20171;-82
2021/12/06 01:23:16;;;;;;;14.27;8.40;;;;;;;5.74;97.14;99947.31;5053031;28;20209;-83
2021/12/06 01:41:34;;;;;;;23.10;8.67;;;;;;;5.78;99.28;100023.13;5052380;28;20201;-82
2021/12/06 01:44:23;;;;;;;16.65;9.55;;;;;;;5.81;99.39;100027.63;5052149;28;20203;-83
2021/12/06 01:46:54;;;;;;;16.63;9.00;;;;;;;5.81;99.33;100022.53;5051244;28;20199;-84
2021/12/06 01:49:23;;;;;;;19.13;10.00;;;;;;;5.77;98.98;100018.78;5052198;28;20175;-84
2021/12/06 01:51:51;;;;;;;18.70;9.63;;;;;;;5.72;99.07;100008.16;5051836;28;20183;-82
2021/12/06 01:54:17;;;;;;;18.07;9.30;;;;;;;5.73;98.79;100012.50;5052195;28;20171;-82
2021/12/06 01:56:44;;;;;;;19.35;10.23;;;;;;;5.83;98.16;100032.09;5051759;28;20697;-85
2021/12/06 01:59:10;;;;;;;18.63;9.70;;;;;;;5.83;97.95;100023.59;5051864;28;20186;-83
2021/12/06 02:01:37;;;;;;;21.27;11.00;;;;;;;5.82;97.29;100020.13;5051929;28;20278;-82
2021/12/06 02:04:04;;;;;;;19.38;9.70;;;;;;;5.83;97.53;100016.84;5051371;28;20262;-84
2021/12/06 02:06:30;;;;;;;19.80;9.03;;;;;;;5.83;97.36;100021.06;5051939;28;20596;-83
2021/12/06 02:08:56;;;;;;;19.35;9.52;;;;;;;5.78;97.64;100015.50;5051701;28;20176;-84
2021/12/06 02:11:24;;;;;;;17.60;8.47;;;;;;;5.59;97.85;99989.91;5051884;28;20172;-87
2021/12/06 02:14:44;;;;;;;16.20;8.50;;;;;;;5.20;97.45;99915.69;5051797;28;20183;-82
2021/12/06 02:16:43;;;;;;;16.60;8.80;;;;;;;5.70;97.99;100002.03;5044241;28;20186;-83
2021/12/06 02:19:10;;;;;;;14.03;8.53;;;;;;;5.66;98.12;100011.72;5051885;28;20647;-82
2021/12/06 02:21:41;;;;;;;16.93;8.90;;;;;;;5.47;98.45;99987.03;5051085;28;20172;-82
2021/12/06 02:24:09;;;;;;;16.40;9.15;;;;;;;5.62;98.65;100028.31;5034367;28;20206;-82
2021/12/06 02:26:37;;;;;;;17.50;9.30;;;;;;;5.63;98.74;100030.09;5051761;28;20183;-83
2021/12/06 02:29:04;;;;;;;18.05;9.57;;;;;;;5.56;99.04;100017.53;5051994;28;20182;-83
2021/12/06 02:31:29;;;;;;;22.43;10.50;;;;;;;5.60;99.35;100024.72;5051785;28;20206;-83
2021/12/06 02:33:55;;;;;;;24.77;11.90;;;;;;;5.64;99.07;100020.84;5051473;28;20270;-83
2021/12/06 02:36:21;;;;;;;22.60;10.20;;;;;;;5.57;98.90;99997.34;5033707;28;20182;-83
2021/12/06 02:38:48;;;;;;;19.47;10.23;;;;;;;5.63;99.01;100007.22;5051798;28;20171;-84
2021/12/06 02:41:14;;;;;;;17.67;9.90;;;;;;;5.63;98.50;100002.16;5051855;28;20186;-83
2021/12/06 02:43:41;;;;;;;17.47;10.13;;;;;;;5.57;98.41;99994.81;5051238;28;20195;-84
2021/12/06 02:46:07;;;;;;;16.70;9.38;;;;;;;5.61;97.84;100000.19;5051512;28;20329;-83
2021/12/06 02:48:33;;;;;;;15.30;8.73;;;;;;;5.59;98.39;99989.00;5051664;28;20297;-82
2021/12/06 02:51:01;;;;;;;16.50;9.50;;;;;;;5.63;98.14;99996.19;5051575;28;20202;-82
2021/12/06 02:53:30;;;;;;;14.83;8.70;;;;;;;5.66;98.47;100012.63;5051187;28;20215;-84
2021/12/06 02:55:59;;;;;;;19.67;9.33;;;;;;;5.60;98.67;99998.41;5051090;28;20643;-83
2021/12/06 03:01:05;;;;;;;21.23;10.27;;;;;;;5.61;98.97;99984.94;5051239;28;20217;-83
2021/12/06 03:03:30;;;;;;;18.52;10.27;;;;;;;5.51;98.78;99976.44;5033583;28;20183;-83
2021/12/06 03:05:56;;;;;;;19.13;9.70;;;;;;;5.65;98.96;99999.78;5051245;28;20211;-83
2021/12/06 03:08:41;;;;;;;16.88;9.48;;;;;;;5.62;98.81;99996.94;5051606;28;20666;-83
2021/12/06 03:11:11;;;;;;;16.93;9.70;;;;;;;5.65;98.78;99999.78;5051251;28;20632;-81
2021/12/06 03:13:39;;;;;;;15.53;8.97;;;;;;;5.66;98.89;99993.94;5033554;28;20198;-82
2021/12/06 03:16:06;;;;;;;17.70;9.80;;;;;;;5.65;98.68;99989.63;5033118;28;20181;-84
2021/12/06 03:18:32;;;;;;;17.57;9.43;;;;;;;5.69;98.84;100000.22;5051330;28;20168;-82
2021/12/06 03:20:58;;;;;;;14.25;8.70;;;;;;;5.68;98.39;99998.44;5051399;28;20176;-83
2021/12/06 03:23:24;;;;;;;16.57;9.33;;;;;;;5.68;98.22;100008.59;5052012;28;20324;-84
2021/12/06 03:25:49;;;;;;;16.23;9.57;;;;;;;5.66;98.12;100009.19;5051807;28;20186;-82
2021/12/06 03:28:15;;;;;;;18.60;9.50;;;;;;;5.66;98.69;100006.66;5051772;28;20600;-83
2021/12/06 03:30:41;;;;;;;18.53;8.70;;;;;;;5.63;98.43;99998.72;5051974;28;20263;-83
2021/12/06 03:33:06;;;;;;;17.13;9.37;;;;;;;5.62;99.07;99996.94;5053840;28;20176;-82
2021/12/06 03:35:32;;;;;;;17.27;9.30;;;;;;;5.53;99.03;99972.38;5036865;28;20631;-81
2021/12/06 03:37:57;;;;;;;16.80;9.43;;;;;;;5.49;98.36;99977.94;5055129;28;20294;-83
2021/12/06 03:40:23;;;;;;;16.95;8.48;;;;;;;5.62;98.20;100008.00;5055033;28;20194;-84
2021/12/06 03:42:48;;;;;;;18.50;9.70;;;;;;;5.63;98.19;100008.88;5037065;28;20660;-85
2021/12/06 03:45:15;;;;;;;16.97;9.50;;;;;;;5.62;98.79;100009.63;5054327;28;20199;-83
2021/12/06 03:47:42;;;;;;;16.03;9.33;;;;;;;5.60;98.47;100006.94;5054250;28;20182;-83
2021/12/06 03:50:09;;;;;;;17.50;9.23;;;;;;;5.41;98.12;99971.16;5054779;28;20171;-82
2021/12/06 03:52:35;;;;;;;16.43;9.50;;;;;;;5.62;98.26;99996.94;5054331;28;20186;-83
2021/12/06 03:55:02;;;;;;;19.83;9.73;;;;;;;5.55;97.95;99991.25;5054469;28;20171;-83
2021/12/06 03:57:28;;;;;;;16.00;9.63;;;;;;;5.63;98.17;100014.84;5054316;28;20171;-84
2021/12/06 03:59:54;;;;;;;16.07;8.63;;;;;;;5.61;97.85;100002.75;5054441;28;20191;-84
2021/12/06 04:02:24;;;;;;;19.53;10.03;;;;;;;5.59;97.98;100002.59;5054134;28;20639;-84
2021/12/06 04:04:50;;;;;;;18.60;9.93;;;;;;;5.32;97.70;99940.66;5053900;28;20234;-85
2021/12/06 04:07:16;;;;;;;18.17;9.60;;;;;;;5.59;98.13;99987.34;5054145;28;20183;-83
2021/12/06 04:09:42;;;;;;;15.73;8.97;;;;;;;5.51;97.48;99990.75;5036131;28;20172;-84
2021/12/06 04:12:09;;;;;;;18.37;8.93;;;;;;;5.60;97.64;100024.72;5053729;28;20625;-83
2021/12/06 04:14:36;;;;;;;16.50;8.97;;;;;;;5.48;98.09;100011.72;5053964;28;20167;-82
2021/12/06 04:17:02;;;;;;;20.47;9.80;;;;;;;5.59;98.74;100027.13;5054091;28;20267;-83
2021/12/06 04:19:27;;;;;;;18.47;10.47;;;;;;;5.51;98.89;100022.19;5053801;28;20233;-82
2021/12/06 04:21:53;;;;;;;23.03;10.60;;;;;;;5.50;99.08;100014.38;5053842;28;20650;-82
2021/12/06 04:24:19;;;;;;;18.80;10.07;;;;;;;5.55;97.99;100021.72;5053990;28;20213;-82
2021/12/06 04:26:45;;;;;;;18.53;9.83;;;;;;;5.65;98.46;100046.41;5035886;28;20171;-83
2021/12/06 04:29:12;;;;;;;19.80;10.60;;;;;;;5.63;98.88;100039.38;5054093;28;20575;-83
2021/12/06 04:31:50;;;;;;;23.63;11.73;;;;;;;5.59;98.80;100015.31;5053855;28;20596;-82
2021/12/06 04:34:16;;;;;;;17.17;10.43;;;;;;;5.57;97.83;100009.16;5053160;28;20182;-79
2021/12/06 04:36:43;;;;;;;17.57;9.60;;;;;;;5.53;97.50;99994.38;5053485;28;20177;-80
2021/12/06 04:39:13;;;;;;;17.97;9.80;;;;;;;5.55;97.17;100000.50;5053984;28;20183;-81
2021/12/06 04:41:38;;;;;;;19.92;9.27;;;;;;;5.60;96.88;100013.66;5054000;28;20236;-82
2021/12/06 04:44:04;;;;;;;19.30;10.25;;;;;;;5.64;97.10;100023.38;5052742;28;20203;-82
2021/12/06 04:46:30;;;;;;;16.50;9.70;;;;;;;5.62;97.17;100028.31;5035488;28;20178;-82
2021/12/06 04:48:57;;;;;;;17.63;10.20;;;;;;;5.64;96.62;100026.84;5037052;28;20163;-84
2021/12/06 04:51:23;;;;;;;19.20;9.37;;;;;;;5.69;96.27;100034.91;5053181;28;20183;-80
2021/12/06 04:53:50;;;;;;;20.60;9.70;;;;;;;5.67;96.30;100031.31;5053400;28;20183;-80
2021/12/06 04:56:21;;;;;;;19.08;10.38;;;;;;;5.70;96.47;100022.38;5053227;28;20159;-83
2021/12/06 04:58:57;;;;;;;15.90;9.27;;;;;;;5.68;96.52;100021.31;5053070;28;20650;-81
2021/12/06 05:01:28;;;;;;;15.98;9.38;;;;;;;5.69;96.07;100024.75;5035248;28;20638;-83
2021/12/06 05:03:56;;;;;;;17.70;9.90;;;;;;;5.68;95.80;100008.59;5052977;28;20234;-82
2021/12/06 05:06:32;;;;;;;19.47;10.03;;;;;;;5.78;96.68;100011.28;5053146;28;20183;-82
2021/12/06 05:09:02;;;;;;;21.43;10.77;;;;;;;5.87;95.16;100005.34;5053189;28;20268;-82
2021/12/06 05:11:29;;;;;;;36.70;17.85;;;;;;;5.86;95.35;100001.00;5053172;28;20180;-82
2021/12/06 05:13:57;;;;;;;18.07;10.87;;;;;;;5.93;94.52;99991.63;5053101;28;20182;-83
2021/12/06 05:16:23;;;;;;;14.32;8.65;;;;;;;5.98;93.81;99994.59;5052796;28;20179;-84
2021/12/06 05:18:49;;;;;;;15.63;9.43;;;;;;;6.02;93.18;99994.16;5053890;28;20183;-81
2021/12/06 05:21:17;;;;;;;12.73;8.25;;;;;;;6.06;92.98;99995.34;5053710;28;20187;-80
2021/12/06 05:23:42;;;;;;;16.40;9.45;;;;;;;6.00;93.47;99990.56;5054976;28;20182;-82
2021/12/06 05:26:08;;;;;;;13.48;8.73;;;;;;;6.07;92.94;99986.97;5057011;28;20180;-80
2021/12/06 05:28:40;;;;;;;13.05;7.95;;;;;;;5.87;92.50;99945.22;5058303;28;20171;-79
2021/12/06 05:31:13;;;;;;;15.40;8.90;;;;;;;6.11;92.53;99984.88;5048452;28;20172;-81
2021/12/06 05:33:41;;;;;;;13.97;7.97;;;;;;;6.00;92.12;99976.19;5067262;28;20238;-79
2021/12/06 05:36:07;;;;;;;17.15;10.40;;;;;;;6.10;92.00;99987.28;5077261;28;20189;-81
2021/12/06 05:38:32;;;;;;;16.80;9.82;;;;;;;5.94;91.92;99949.28;5060919;28;20167;-78
2021/12/06 05:40:58;;;;;;;14.73;8.70;;;;;;;6.10;95.08;99969.47;5078390;28;20242;-82
2021/12/06 05:43:24;;;;;;;15.70;9.32;;;;;;;6.85;100.00;100004.66;5061138;28;20192;-81
2021/12/06 05:45:50;;;;;;;17.77;9.57;;;;;;;7.33;100.00;100010.03;5074609;28;20195;-79
2021/12/06 05:48:17;;;;;;;15.77;10.40;;;;;;;7.21;88.34;100013.97;5070490;28;20175;-78
2021/12/06 05:50:47;;;;;;;17.58;10.80;;;;;;;6.94;88.00;99988.59;5071130;28;20171;-80
2021/12/06 05:53:13;;;;;;;19.45;12.48;;;;;;;6.72;89.12;99955.13;5070842;28;20171;-79
2021/12/06 05:55:39;;;;;;;19.88;12.05;;;;;;;6.79;89.13;99987.19;5052738;28;20191;-80
2021/12/06 05:58:06;;;;;;;18.95;11.07;;;;;;;6.52;89.93;99962.53;5053149;28;20168;-81
2021/12/06 06:00:33;;;;;;;17.65;10.77;;;;;;;6.62;90.14;100000.81;5053802;28;20286;-81
2021/12/06 06:03:02;;;;;;;20.50;10.98;;;;;;;6.54;90.86;99994.13;5052532;28;20182;-80
2021/12/06 06:05:28;;;;;;;20.55;10.40;;;;;;;6.46;91.62;99983.19;5051487;28;20233;-81
2021/12/06 06:07:54;;;;;;;19.63;11.25;;;;;;;6.34;91.68;99976.03;5052107;28;20172;-86
2021/12/06 06:10:19;;;;;;;22.27;10.80;;;;;;;6.27;92.39;99979.63;5052209;28;20225;-84
2021/12/06 06:12:45;;;;;;;18.15;9.60;;;;;;;6.31;92.92;99988.47;5052377;28;20167;-85
2021/12/06 06:15:11;;;;;;;17.50;10.60;;;;;;;6.26;93.48;99982.91;5052193;28;20536;-86
2021/12/06 06:17:42;;;;;;;15.32;9.57;;;;;;;6.15;93.89;99979.34;5051998;28;20587;-83
2021/12/06 06:20:14;;;;;;;18.47;10.00;;;;;;;6.19;94.39;100011.06;5052833;28;20166;-82
2021/12/06 06:22:41;;;;;;;19.98;10.05;;;;;;;6.14;95.29;100033.53;5054885;28;20210;-84
2021/12/06 06:25:07;;;;;;;21.33;11.05;;;;;;;6.10;95.44;100039.03;5053283;28;20194;-83
2021/12/06 06:27:33;;;;;;;19.87;10.93;;;;;;;5.79;95.65;100000.41;5052613;28;20175;-84
2021/12/06 06:29:58;;;;;;;21.50;12.03;;;;;;;5.21;96.53;99884.47;5053198;28;20171;-83
2021/12/06 06:32:24;;;;;;;20.17;11.43;;;;;;;6.08;96.43;100016.75;5035263;28;20171;-83
2021/12/06 06:34:49;;;;;;;21.53;11.77;;;;;;;6.01;96.69;99994.88;5054104;28;20216;-82
2021/12/06 06:37:15;;;;;;;16.52;9.68;;;;;;;6.10;96.42;100013.59;5054626;28;20168;-82
2021/12/06 06:39:40;;;;;;;18.55;9.70;;;;;;;6.11;96.41;100020.50;5054785;28;20178;-85
2021/12/06 06:42:06;;;;;;;17.27;10.30;;;;;;;6.13;95.72;100010.47;5055244;28;20626;-82
2021/12/06 06:44:31;;;;;;;21.38;10.35;;;;;;;5.94;96.10;99983.22;5055645;28;20585;-83
2021/12/06 06:46:57;;;;;;;22.02;11.75;;;;;;;6.15;96.06;100003.88;5056302;28;20179;-82
2021/12/06 06:49:25;;;;;;;19.10;9.95;;;;;;;5.82;96.50;99942.97;5053876;28;20254;-82
2021/12/06 06:51:51;;;;;;;15.65;9.05;;;;;;;5.61;95.16;99917.25;5051585;28;20178;-83
2021/12/06 06:54:16;;;;;;;18.60;9.35;;;;;;;5.70;95.51;99915.63;5051500;28;20199;-83
2021/12/06 06:56:42;;;;;;;13.02;7.95;;;;;;;5.47;94.69;99872.69;5033479;28;20178;-82
2021/12/06 06:59:08;;;;;;;13.07;8.07;;;;;;;5.58;93.95;99889.00;5051166;28;20175;-85
2021/12/06 07:01:33;;;;;;;14.85;9.23;;;;;;;6.18;93.57;99983.84;5051133;28;20172;-81
2021/12/06 07:04:00;;;;;;;13.02;8.32;;;;;;;6.07;93.79;99975.16;5050938;28;20215;-84
2021/12/06 07:06:27;;;;;;;19.45;10.63;;;;;;;5.70;93.84;99922.31;5051372;28;20258;-85
2021/12/06 07:08:54;;;;;;;13.10;8.93;;;;;;;5.56;93.80;99915.91;5036441;28;20610;-82
2021/12/06 07:11:21;;;;;;;13.25;8.18;;;;;;;6.19;94.79;100033.94;5055106;28;20175;-83
2021/12/06 07:13:48;;;;;;;14.00;8.50;;;;;;;5.85;94.57;99966.16;5054979;28;20163;-82
2021/12/06 07:16:15;;;;;;;14.35;8.75;;;;;;;6.20;94.11;100034.13;5055074;28;20199;-82
2021/12/06 07:18:41;;;;;;;15.90;9.52;;;;;;;6.16;94.02;100026.03;5055473;28;20261;-85
2021/12/06 07:21:08;;;;;;;17.60;9.90;;;;;;;6.14;95.16;100030.97;5055691;28;20203;-83
2021/12/06 07:23:38;;;;;;;14.20;9.60;;;;;;;6.15;95.18;100036.94;5055746;28;20195;-84
2021/12/06 07:26:08;;;;;;;13.60;9.48;;;;;;;6.07;95.11;100020.94;5056305;28;20170;-82
2021/12/06 07:28:35;;;;;;;13.48;8.90;;;;;;;6.18;94.89;100048.31;5057474;28;20206;-82
2021/12/06 07:31:04;;;;;;;20.48;12.65;;;;;;;6.23;95.18;100058.94;5056317;28;20553;-82
2021/12/06 07:33:29;;;;;;;22.07;12.53;;;;;;;5.97;95.93;100000.44;5055569;28;20589;-83
2021/12/06 07:35:55;;;;;;;19.40;11.77;;;;;;;6.28;95.37;100044.13;5037473;28;20187;-83
2021/12/06 07:38:21;;;;;;;15.90;8.83;;;;;;;6.24;95.14;100031.13;5060965;28;20167;-83
2021/12/06 07:40:50;;;;;;;12.73;8.83;;;;;;;6.33;94.55;100054.03;5060884;28;20194;-82
2021/12/06 07:43:19;;;;;;;15.15;9.15;;;;;;;6.38;94.92;100068.06;5055018;28;20182;-82
2021/12/06 07:45:46;;;;;;;15.55;9.38;;;;;;;6.39;94.72;100057.16;5061985;28;20205;-83
2021/12/06 07:48:12;;;;;;;18.48;10.32;;;;;;;6.28;94.92;100036.50;5048014;28;20176;-83
2021/12/06 07:50:38;;;;;;;21.60;12.07;;;;;;;6.22;95.20;100030.06;5069438;28;20183;-83
2021/12/06 07:53:03;;;;;;;28.25;14.50;;;;;;;6.41;95.22;100047.13;5072764;28;20175;-81
2021/12/06 07:55:32;;;;;;;33.28;15.38;;;;;;;6.41;95.10;100027.66;5067926;28;20179;-82
2021/12/06 07:57:59;;;;;;;22.52;12.98;;;;;;;6.38;94.84;100029.00;5052884;28;20171;-83
2021/12/06 08:00:27;;;;;;;27.27;12.35;;;;;;;6.51;94.93;100031.09;5069629;28;20187;-81
2021/12/06 08:02:53;;;;;;;27.63;13.00;;;;;;;6.53;94.80;100042.31;5070285;28;20662;-82
2021/12/06 08:05:35;;;;;;;25.98;13.75;;;;;;;6.54;94.73;100042.50;5067501;28;20234;-81
2021/12/06 08:08:06;;;;;;;26.70;13.23;;;;;;;6.34;95.14;100004.03;5062574;28;20172;-81
2021/12/06 08:10:33;;;;;;;26.58;13.77;;;;;;;6.61;95.33;100043.97;5041501;28;20239;-83
2021/12/06 08:12:59;;;;;;;22.58;12.05;;;;;;;6.56;95.41;100033.31;5060537;28;20191;-82
2021/12/06 08:15:25;;;;;;;21.70;11.55;;;;;;;6.64;95.17;100040.06;5060253;28;20261;-84
2021/12/06 08:17:50;;;;;;;25.70;12.45;;;;;;;6.65;95.18;100046.94;5058186;28;20246;-83
2021/12/06 08:20:16;;;;;;;27.88;13.00;;;;;;;6.47;95.52;99999.34;5056685;28;20175;-82
2021/12/06 08:22:41;;;;;;;25.40;13.77;;;;;;;6.72;95.69;100017.88;5061733;28;20164;-82
2021/12/06 08:25:09;;;;;;;26.88;13.93;;;;;;;6.79;96.14;100015.19;5069108;28;20727;-81
2021/12/06 08:27:35;;;;;;;33.88;16.02;;;;;;;6.75;94.90;100012.19;5068748;28;20168;-81
2021/12/06 08:30:00;;;;;;;36.40;17.25;;;;;;;6.81;95.21;100038.22;5068952;28;20186;-82
2021/12/06 08:32:26;;;;;;;32.53;15.90;;;;;;;6.78;95.12;100020.13;5065593;28;20203;-80
2021/12/06 08:34:52;;;;;;;35.97;18.17;;;;;;;6.76;95.19;99998.69;5071421;28;20182;-81
2021/12/06 08:37:17;;;;;;;35.50;17.05;;;;;;;6.61;94.79;99973.59;5071774;28;20186;-81
2021/12/06 08:39:43;;;;;;;36.30;18.45;;;;;;;6.91;95.09;100028.16;5070446;28;20179;-84
2021/12/06 08:42:09;;;;;;;36.65;19.55;;;;;;;6.85;95.06;100010.66;5069170;28;20182;-82
2021/12/06 08:44:35;;;;;;;32.25;16.23;;;;;;;6.70;94.91;99979.56;5070161;28;20207;-84
2021/12/06 08:47:02;;;;;;;27.00;14.57;;;;;;;6.90;94.54;100011.09;5068866;28;20182;-82
2021/12/06 08:49:28;;;;;;;29.20;14.88;;;;;;;6.95;94.32;100022.63;5042215;28;20623;-83
2021/12/06 08:51:56;;;;;;;26.97;15.20;;;;;;;6.67;94.72;99973.28;5055682;28;20182;-83
2021/12/06 08:54:26;;;;;;;28.92;15.32;;;;;;;6.95;94.81;100009.88;5055565;28;20198;-82
2021/12/06 08:56:53;;;;;;;31.52;16.00;;;;;;;6.89;94.76;100000.00;5056133;28;20190;-82
2021/12/06 08:59:19;;;;;;;29.85;16.25;;;;;;;6.91;94.41;99998.50;5036957;28;20195;-86
2021/12/06 09:01:46;;;;;;;31.50;16.30;;;;;;;6.99;94.29;100018.72;5056831;28;20167;-83
2021/12/06 09:04:12;;;;;;;28.27;15.63;;;;;;;6.94;93.93;100005.53;5055360;28;20242;-83
2021/12/06 09:06:45;;;;;;;34.72;17.05;;;;;;;6.99;93.20;100008.53;5055369;28;20710;-82
2021/12/06 09:09:12;;;;;;;27.13;14.60;;;;;;;6.51;93.13;99920.03;5054119;28;20170;-82
2021/12/06 09:11:40;;;;;;;28.87;15.60;;;;;;;6.87;94.28;100005.72;5036257;28;20175;-83
2021/12/06 09:14:06;;;;;;;27.10;15.90;;;;;;;6.98;94.08;100000.00;5054576;28;20182;-84
2021/12/06 09:16:36;;;;;;;27.92;14.77;;;;;;;6.66;93.82;99957.09;5035699;28;20266;-84
2021/12/06 09:19:04;;;;;;;29.00;16.17;;;;;;;6.62;94.47;99939.72;5052787;28;20255;-82
2021/12/06 09:21:30;;;;;;;27.15;14.63;;;;;;;7.03;94.26;100008.94;5053056;28;20182;-84
2021/12/06 09:23:58;;;;;;;25.42;14.75;;;;;;;7.05;94.95;100009.09;5052698;28;20233;-83
2021/12/06 09:26:24;;;;;;;26.63;14.85;;;;;;;7.09;94.99;100019.72;5052582;28;20270;-85
2021/12/06 09:28:49;;;;;;;26.70;14.20;;;;;;;6.57;94.91;99922.22;5035007;28;20186;-84
2021/12/06 09:31:18;;;;;;;23.88;13.20;;;;;;;6.57;93.59;99910.41;5052182;28;20172;-84
2021/12/06 09:33:43;;;;;;;22.38;13.45;;;;;;;6.39;93.29;99878.16;5034438;28;20171;-84
2021/12/06 09:36:10;;;;;;;32.17;18.15;;;;;;;6.54;93.37;99901.56;5052444;28;20172;-81
2021/12/06 09:38:39;;;;;;;24.27;13.43;;;;;;;7.12;93.79;99997.06;5052786;28;20155;-84
2021/12/06 09:41:10;;;;;;;23.15;14.10;;;;;;;7.16;94.47;99996.63;5052977;28;20182;-82
2021/12/06 09:43:39;;;;;;;40.80;17.23;;;;;;;7.16;95.20;99986.44;5052631;28;20160;-83
2021/12/06 09:46:06;;;;;;;44.25;20.25;;;;;;;7.11;94.63;99977.44;5052739;28;20163;-83
2021/12/06 09:48:32;;;;;;;126.95;46.08;;;;;;;7.16;95.07;99986.44;5052659;28;20171;-83
2021/12/06 09:51:02;;;;;;;75.03;33.80;;;;;;;7.22;95.59;99988.63;5052662;28;20183;-84
2021/12/06 09:53:32;;;;;;;42.75;20.50;;;;;;;7.04;95.20;99947.06;5052642;28;20225;-86
2021/12/06 09:56:02;;;;;;;53.33;20.75;;;;;;;6.77;94.56;99885.94;5052160;28;20580;-83
2021/12/06 09:58:30;;;;;;;47.28;20.58;;;;;;;7.26;93.88;99975.44;5052486;28;20250;-82
2021/12/06 10:00:59;;;;;;;61.42;25.95;;;;;;;7.07;93.88;99932.06;5052238;28;20203;-84
2021/12/06 10:03:29;;;;;;;39.97;21.10;;;;;;;7.09;94.15;99933.09;5052424;28;20174;-83
2021/12/06 10:06:02;;;;;;;113.47;38.30;;;;;;;7.15;94.15;99936.22;5051797;28;20418;-84
2021/12/06 10:08:32;;;;;;;37.35;17.00;;;;;;;6.58;94.14;99838.41;5052319;28;20242;-83
2021/12/06 10:10:58;;;;;;;30.02;15.32;;;;;;;6.91;93.20;99913.56;5034405;28;20248;-83
2021/12/06 10:13:24;;;;;;;28.63;15.02;;;;;;;7.39;94.21;99977.47;5051942;28;20212;-82
2021/12/06 10:15:51;;;;;;;35.30;16.25;;;;;;;7.41;93.72;99970.84;5051849;28;20186;-83
2021/12/06 10:18:18;;;;;;;31.85;15.20;;;;;;;7.47;94.04;99970.50;5052174;28;20179;-83
2021/12/06 10:20:45;;;;;;;31.90;15.73;;;;;;;7.30;93.71;99923.09;5051509;28;20181;-82
2021/12/06 10:23:15;;;;;;;32.33;15.43;;;;;;;7.31;93.33;99919.78;5051562;28;20241;-83
2021/12/06 10:25:43;;;;;;;47.28;20.13;;;;;;;7.35;92.93;99924.41;5051327;28;20203;-84
2021/12/06 10:28:09;;;;;;;37.83;18.02;;;;;;;7.35;92.72;99916.75;5051454;28;20179;-83
2021/12/06 10:30:39;;;;;;;35.40;17.10;;;;;;;7.59;92.17;99954.69;5051491;28;20175;-83
2021/12/06 10:33:13;;;;;;;37.83;18.60;;;;;;;7.61;92.24;99958.28;5051066;28;20179;-85
2021/12/06 10:35:49;;;;;;;44.67;20.65;;;;;;;7.61;92.54;99963.38;5051604;28;20171;-83
2021/12/06 10:38:39;;;;;;;43.65;20.90;;;;;;;7.63;92.57;99951.69;5051950;28;20249;-81
2021/12/06 10:41:09;;;;;;;45.10;20.95;;;;;;;7.64;92.13;99939.81;5041545;28;20198;-82
2021/12/06 10:43:36;;;;;;;31.73;16.00;;;;;;;7.66;91.81;99940.81;5051031;28;20246;-83
2021/12/06 10:46:04;;;;;;;21.83;13.50;;;;;;;7.64;91.42;99943.25;5051041;28;20203;-83
2021/12/06 10:48:32;;;;;;;25.33;13.23;;;;;;;7.60;92.00;99938.66;5051386;28;20171;-81
2021/12/06 10:51:10;;;;;;;33.25;15.30;;;;;;;7.53;91.60;99930.28;5033303;28;20167;-82
2021/12/06 10:53:41;;;;;;;27.42;14.70;;;;;;;7.62;91.97;99942.22;5058685;28;20246;-81
2021/12/06 10:56:18;;;;;;;27.33;13.55;;;;;;;7.62;91.89;99949.84;5058376;28;20175;-83
2021/12/06 10:58:44;;;;;;;25.50;14.13;;;;;;;7.49;92.45;99929.13;5059106;28;20250;-82
2021/12/06 11:01:19;;;;;;;25.15;14.85;;;;;;;7.63;92.00;99950.75;5039713;28;20202;-81
2021/12/06 11:03:51;;;;;;;25.60;13.38;;;;;;;7.49;92.04;99915.47;5041411;28;20657;-83
2021/12/06 11:06:23;;;;;;;27.35;14.93;;;;;;;7.64;91.58;99935.59;5057795;28;20168;-82
2021/12/06 11:08:51;;;;;;;31.00;17.02;;;;;;;7.65;92.06;99933.94;5060437;28;20658;-83
2021/12/06 11:11:31;;;;;;;43.30;22.48;;;;;;;7.59;92.30;99930.84;5057985;28;20210;-84
2021/12/06 11:14:04;;;;;;;39.40;20.17;;;;;;;7.66;92.34;99951.03;5060375;28;20170;-82
2021/12/06 11:16:33;;;;;;;23.98;13.85;;;;;;;7.67;92.29;99950.28;5059655;28;20167;-82
2021/12/06 11:19:00;;;;;;;26.80;15.52;;;;;;;7.65;92.39;99951.78;5042299;28;20574;-84
2021/12/06 11:21:50;;;;;;;37.85;17.98;;;;;;;7.47;92.75;99894.94;5033466;28;20705;-81
2021/12/06 11:24:46;;;;;;;29.92;16.58;;;;;;;7.71;92.06;99929.41;5025040;28;20649;-82
2021/12/06 11:27:21;;;;;;;26.67;14.95;;;;;;;7.71;92.61;99931.06;5060410;28;20194;-82
2021/12/06 11:29:55;;;;;;;34.30;18.23;;;;;;;7.53;92.46;99900.59;5058391;28;20163;-82
2021/12/06 11:32:31;;;;;;;32.28;18.20;;;;;;;7.74;92.66;99916.03;5058220;28;20181;-84
2021/12/06 11:34:59;;;;;;;32.85;18.00;;;;;;;7.19;92.76;99825.28;5058082;28;20175;-82
2021/12/06 11:37:28;;;;;;;52.83;23.35;;;;;;;6.95;92.60;99788.31;5058549;28;20178;-82
2021/12/06 11:40:20;;;;;;;51.72;24.23;;;;;;;7.75;92.97;99912.72;5057072;28;20639;-80
2021/12/06 11:43:03;;;;;;;51.88;24.38;;;;;;;7.70;93.29;99917.44;5056853;28;20270;-82
2021/12/06 11:45:46;;;;;;;51.42;25.85;;;;;;;7.70;94.08;99925.06;5053119;28;20295;-81
2021/12/06 11:48:22;;;;;;;54.58;25.25;;;;;;;7.78;94.02;99936.84;5052596;28;20168;-82